sensor_id;sensor_type;location;lat;lon;timestamp;P1;durP1;ratioP1;P2;durP2;ratioP2
79624;SDS011;69101;45.534;10.218;2023-05-14T00:02:12;7.53;;;2.00;;
79624;SDS011;69101;45.534;10.218;2023-05-14T00:04:37;8.52;;;2.20;;
79624;SDS011;69101;45.534;10.218;2023-05-14T00:07:03;8.52;;;2.15;;
79624;SDS011;69101;45.534;10.218;2023-05-14T00:09:28;8.18;;;2.10;;
79624;SDS011;69101;45.534;10.218;2023-05-14T00:11:54;8.07;;;2.17;;
79624;SDS011;69101;45.534;10.218;2023-05-14T00:14:20;8.77;;;2.45;;
79624;SDS011;69101;45.534;10.218;2023-05-14T00:16:45;10.05;;;2.45;;
79624;SDS011;69101;45.534;10.218;2023-05-14T00:19:10;8.10;;;2.20;;
79624;SDS011;69101;45.534;10.218;2023-05-14T00:21:36;8.20;;;2.33;;
79624;SDS011;69101;45.534;10.218;2023-05-14T00:24:01;7.90;;;2.20;;
79624;SDS011;69101;45.534;10.218;2023-05-14T00:26:26;7.80;;;2.22;;
79624;SDS011;69101;45.534;10.218;2023-05-14T00:28:52;7.35;;;2.28;;
79624;SDS011;69101;45.534;10.218;2023-05-14T00:31:17;9.23;;;2.70;;
79624;SDS011;69101;45.534;10.218;2023-05-14T00:33:43;7.57;;;2.22;;
79624;SDS011;69101;45.534;10.218;2023-05-14T00:36:08;8.27;;;2.33;;
79624;SDS011;69101;45.534;10.218;2023-05-14T00:38:33;9.23;;;2.60;;
79624;SDS011;69101;45.534;10.218;2023-05-14T00:40:58;8.30;;;2.40;;
79624;SDS011;69101;45.534;10.218;2023-05-14T00:43:24;8.40;;;2.55;;
79624;SDS011;69101;45.534;10.218;2023-05-14T00:45:50;9.02;;;2.70;;
79624;SDS011;69101;45.534;10.218;2023-05-14T00:48:18;9.07;;;2.50;;
79624;SDS011;69101;45.534;10.218;2023-05-14T00:50:44;8.65;;;2.45;;
79624;SDS011;69101;45.534;10.218;2023-05-14T00:53:10;7.85;;;2.20;;
79624;SDS011;69101;45.534;10.218;2023-05-14T00:55:39;8.68;;;2.17;;
79624;SDS011;69101;45.534;10.218;2023-05-14T00:58:09;7.78;;;2.20;;
79624;SDS011;69101;45.534;10.218;2023-05-14T01:00:37;8.45;;;2.30;;
79624;SDS011;69101;45.534;10.218;2023-05-14T01:03:03;9.38;;;2.30;;
79624;SDS011;69101;45.534;10.218;2023-05-14T01:08:08;6.70;;;2.00;;
79624;SDS011;69101;45.534;10.218;2023-05-14T01:10:44;8.18;;;2.10;;
79624;SDS011;69101;45.534;10.218;2023-05-14T01:13:24;8.52;;;2.22;;
79624;SDS011;69101;45.534;10.218;2023-05-14T01:15:55;8.70;;;2.28;;
79624;SDS011;69101;45.534;10.218;2023-05-14T01:18:23;7.78;;;2.03;;
79624;SDS011;69101;45.534;10.218;2023-05-14T01:20:52;7.50;;;2.00;;
79624;SDS011;69101;45.534;10.218;2023-05-14T01:23:18;8.18;;;2.10;;
79624;SDS011;69101;45.534;10.218;2023-05-14T01:25:43;8.40;;;2.53;;
79624;SDS011;69101;45.534;10.218;2023-05-14T01:28:18;7.35;;;2.00;;
79624;SDS011;69101;45.534;10.218;2023-05-14T01:33:23;7.85;;;2.30;;
79624;SDS011;69101;45.534;10.218;2023-05-14T01:35:49;7.82;;;2.20;;
79624;SDS011;69101;45.534;10.218;2023-05-14T01:38:17;7.32;;;1.92;;
79624;SDS011;69101;45.534;10.218;2023-05-14T01:40:44;8.57;;;2.20;;
79624;SDS011;69101;45.534;10.218;2023-05-14T01:43:11;9.00;;;2.20;;
79624;SDS011;69101;45.534;10.218;2023-05-14T01:45:37;8.40;;;2.40;;
79624;SDS011;69101;45.534;10.218;2023-05-14T01:48:03;9.40;;;2.40;;
79624;SDS011;69101;45.534;10.218;2023-05-14T01:50:29;7.82;;;2.28;;
79624;SDS011;69101;45.534;10.218;2023-05-14T01:52:54;7.63;;;1.92;;
79624;SDS011;69101;45.534;10.218;2023-05-14T01:55:20;9.65;;;2.10;;
79624;SDS011;69101;45.534;10.218;2023-05-14T01:57:48;8.82;;;2.20;;
79624;SDS011;69101;45.534;10.218;2023-05-14T02:00:14;7.43;;;2.10;;
79624;SDS011;69101;45.534;10.218;2023-05-14T02:02:39;7.40;;;2.10;;
79624;SDS011;69101;45.534;10.218;2023-05-14T02:05:05;7.22;;;1.90;;
79624;SDS011;69101;45.534;10.218;2023-05-14T02:07:31;7.85;;;2.15;;
79624;SDS011;69101;45.534;10.218;2023-05-14T02:09:56;8.30;;;2.10;;
79624;SDS011;69101;45.534;10.218;2023-05-14T02:12:21;6.90;;;1.83;;
79624;SDS011;69101;45.534;10.218;2023-05-14T02:14:47;8.38;;;2.10;;
79624;SDS011;69101;45.534;10.218;2023-05-14T02:17:12;7.22;;;1.85;;
79624;SDS011;69101;45.534;10.218;2023-05-14T02:19:40;8.77;;;2.05;;
79624;SDS011;69101;45.534;10.218;2023-05-14T02:22:06;7.82;;;2.00;;
79624;SDS011;69101;45.534;10.218;2023-05-14T02:24:31;7.22;;;1.98;;
79624;SDS011;69101;45.534;10.218;2023-05-14T02:26:56;7.10;;;1.80;;
79624;SDS011;69101;45.534;10.218;2023-05-14T02:29:24;7.15;;;1.90;;
79624;SDS011;69101;45.534;10.218;2023-05-14T02:31:50;7.72;;;2.00;;
79624;SDS011;69101;45.534;10.218;2023-05-14T02:34:15;7.97;;;2.03;;
79624;SDS011;69101;45.534;10.218;2023-05-14T02:36:41;7.90;;;2.00;;
79624;SDS011;69101;45.534;10.218;2023-05-14T02:39:06;8.35;;;2.20;;
79624;SDS011;69101;45.534;10.218;2023-05-14T02:41:31;6.70;;;1.80;;
79624;SDS011;69101;45.534;10.218;2023-05-14T02:43:57;8.00;;;1.90;;
79624;SDS011;69101;45.534;10.218;2023-05-14T02:46:22;6.72;;;1.90;;
79624;SDS011;69101;45.534;10.218;2023-05-14T02:48:47;7.68;;;2.10;;
79624;SDS011;69101;45.534;10.218;2023-05-14T02:51:13;8.50;;;2.08;;
79624;SDS011;69101;45.534;10.218;2023-05-14T02:53:38;10.77;;;2.00;;
79624;SDS011;69101;45.534;10.218;2023-05-14T02:56:04;7.63;;;1.90;;
79624;SDS011;69101;45.534;10.218;2023-05-14T02:58:29;7.82;;;1.95;;
79624;SDS011;69101;45.534;10.218;2023-05-14T03:00:55;6.85;;;2.05;;
79624;SDS011;69101;45.534;10.218;2023-05-14T03:03:20;8.15;;;1.90;;
79624;SDS011;69101;45.534;10.218;2023-05-14T03:05:45;6.95;;;1.73;;
79624;SDS011;69101;45.534;10.218;2023-05-14T03:08:11;7.03;;;1.80;;
79624;SDS011;69101;45.534;10.218;2023-05-14T03:10:36;7.90;;;1.95;;
79624;SDS011;69101;45.534;10.218;2023-05-14T03:13:01;5.97;;;1.73;;
79624;SDS011;69101;45.534;10.218;2023-05-14T03:15:27;7.78;;;2.10;;
79624;SDS011;69101;45.534;10.218;2023-05-14T03:17:52;6.88;;;1.80;;
79624;SDS011;69101;45.534;10.218;2023-05-14T03:20:18;7.43;;;1.92;;
79624;SDS011;69101;45.534;10.218;2023-05-14T03:22:44;6.20;;;1.65;;
79624;SDS011;69101;45.534;10.218;2023-05-14T03:25:09;7.75;;;1.95;;
79624;SDS011;69101;45.534;10.218;2023-05-14T03:27:35;6.50;;;1.63;;
79624;SDS011;69101;45.534;10.218;2023-05-14T03:30:00;8.68;;;2.10;;
79624;SDS011;69101;45.534;10.218;2023-05-14T03:32:25;7.15;;;2.00;;
79624;SDS011;69101;45.534;10.218;2023-05-14T03:34:51;8.00;;;2.03;;
79624;SDS011;69101;45.534;10.218;2023-05-14T03:37:16;7.82;;;1.80;;
79624;SDS011;69101;45.534;10.218;2023-05-14T03:39:42;6.43;;;1.85;;
79624;SDS011;69101;45.534;10.218;2023-05-14T03:42:07;6.93;;;1.70;;
79624;SDS011;69101;45.534;10.218;2023-05-14T03:44:32;7.25;;;1.95;;
79624;SDS011;69101;45.534;10.218;2023-05-14T03:46:58;6.90;;;1.90;;
79624;SDS011;69101;45.534;10.218;2023-05-14T03:49:23;6.22;;;1.73;;
79624;SDS011;69101;45.534;10.218;2023-05-14T03:51:49;7.28;;;1.75;;
79624;SDS011;69101;45.534;10.218;2023-05-14T03:54:14;6.20;;;1.60;;
79624;SDS011;69101;45.534;10.218;2023-05-14T03:56:40;6.38;;;1.75;;
79624;SDS011;69101;45.534;10.218;2023-05-14T03:59:05;5.53;;;1.52;;
79624;SDS011;69101;45.534;10.218;2023-05-14T04:01:30;7.35;;;1.70;;
79624;SDS011;69101;45.534;10.218;2023-05-14T04:03:56;6.82;;;1.65;;
79624;SDS011;69101;45.534;10.218;2023-05-14T04:06:21;6.15;;;1.45;;
79624;SDS011;69101;45.534;10.218;2023-05-14T04:08:46;6.20;;;1.70;;
79624;SDS011;69101;45.534;10.218;2023-05-14T04:11:12;5.90;;;1.70;;
79624;SDS011;69101;45.534;10.218;2023-05-14T04:13:37;8.00;;;1.83;;
79624;SDS011;69101;45.534;10.218;2023-05-14T04:16:02;6.03;;;1.70;;
79624;SDS011;69101;45.534;10.218;2023-05-14T04:18:28;6.35;;;1.70;;
79624;SDS011;69101;45.534;10.218;2023-05-14T04:20:53;7.53;;;1.70;;
79624;SDS011;69101;45.534;10.218;2023-05-14T04:23:19;7.38;;;1.60;;
79624;SDS011;69101;45.534;10.218;2023-05-14T04:25:44;7.47;;;1.90;;
79624;SDS011;69101;45.534;10.218;2023-05-14T04:28:09;6.63;;;1.80;;
79624;SDS011;69101;45.534;10.218;2023-05-14T04:30:35;6.45;;;1.65;;
79624;SDS011;69101;45.534;10.218;2023-05-14T04:33:00;6.57;;;1.90;;
79624;SDS011;69101;45.534;10.218;2023-05-14T04:35:26;8.07;;;1.73;;
79624;SDS011;69101;45.534;10.218;2023-05-14T04:37:51;6.90;;;1.70;;
79624;SDS011;69101;45.534;10.218;2023-05-14T04:40:17;6.00;;;1.83;;
79624;SDS011;69101;45.534;10.218;2023-05-14T04:42:43;6.65;;;1.88;;
79624;SDS011;69101;45.534;10.218;2023-05-14T04:45:08;7.78;;;1.90;;
79624;SDS011;69101;45.534;10.218;2023-05-14T04:47:34;5.78;;;1.60;;
79624;SDS011;69101;45.534;10.218;2023-05-14T04:49:59;5.75;;;1.60;;
79624;SDS011;69101;45.534;10.218;2023-05-14T04:52:25;6.72;;;1.70;;
79624;SDS011;69101;45.534;10.218;2023-05-14T04:54:50;6.20;;;1.67;;
79624;SDS011;69101;45.534;10.218;2023-05-14T04:57:16;6.75;;;1.60;;
79624;SDS011;69101;45.534;10.218;2023-05-14T04:59:41;6.22;;;1.70;;
79624;SDS011;69101;45.534;10.218;2023-05-14T05:02:07;5.65;;;1.60;;
79624;SDS011;69101;45.534;10.218;2023-05-14T05:04:32;6.75;;;1.63;;
79624;SDS011;69101;45.534;10.218;2023-05-14T05:06:57;5.57;;;1.50;;
79624;SDS011;69101;45.534;10.218;2023-05-14T05:09:23;6.95;;;1.70;;
79624;SDS011;69101;45.534;10.218;2023-05-14T05:11:48;6.53;;;1.60;;
79624;SDS011;69101;45.534;10.218;2023-05-14T05:14:13;4.95;;;1.50;;
79624;SDS011;69101;45.534;10.218;2023-05-14T05:16:39;6.63;;;1.67;;
79624;SDS011;69101;45.534;10.218;2023-05-14T05:19:04;6.72;;;1.60;;
79624;SDS011;69101;45.534;10.218;2023-05-14T05:21:29;6.72;;;1.60;;
79624;SDS011;69101;45.534;10.218;2023-05-14T05:23:55;6.35;;;1.70;;
79624;SDS011;69101;45.534;10.218;2023-05-14T05:26:20;6.90;;;1.70;;
79624;SDS011;69101;45.534;10.218;2023-05-14T05:28:46;5.35;;;1.50;;
79624;SDS011;69101;45.534;10.218;2023-05-14T05:31:11;6.97;;;1.60;;
79624;SDS011;69101;45.534;10.218;2023-05-14T05:33:37;5.90;;;1.60;;
79624;SDS011;69101;45.534;10.218;2023-05-14T05:36:03;5.57;;;1.55;;
79624;SDS011;69101;45.534;10.218;2023-05-14T05:38:28;7.85;;;1.70;;
79624;SDS011;69101;45.534;10.218;2023-05-14T05:40:53;6.97;;;1.60;;
79624;SDS011;69101;45.534;10.218;2023-05-14T05:43:19;6.72;;;1.80;;
79624;SDS011;69101;45.534;10.218;2023-05-14T05:45:44;7.13;;;1.80;;
79624;SDS011;69101;45.534;10.218;2023-05-14T05:48:10;7.22;;;1.80;;
79624;SDS011;69101;45.534;10.218;2023-05-14T05:50:35;5.72;;;1.63;;
79624;SDS011;69101;45.534;10.218;2023-05-14T05:53:01;7.10;;;2.10;;
79624;SDS011;69101;45.534;10.218;2023-05-14T05:55:27;7.28;;;2.00;;
79624;SDS011;69101;45.534;10.218;2023-05-14T05:57:53;7.60;;;1.90;;
79624;SDS011;69101;45.534;10.218;2023-05-14T06:00:18;8.23;;;1.95;;
79624;SDS011;69101;45.534;10.218;2023-05-14T06:02:44;7.80;;;1.70;;
79624;SDS011;69101;45.534;10.218;2023-05-14T06:05:10;7.05;;;1.83;;
79624;SDS011;69101;45.534;10.218;2023-05-14T06:07:36;7.80;;;1.95;;
79624;SDS011;69101;45.534;10.218;2023-05-14T06:10:02;7.05;;;1.90;;
79624;SDS011;69101;45.534;10.218;2023-05-14T06:12:28;8.10;;;1.90;;
79624;SDS011;69101;45.534;10.218;2023-05-14T06:14:54;7.20;;;1.90;;
79624;SDS011;69101;45.534;10.218;2023-05-14T06:17:21;8.13;;;1.88;;
79624;SDS011;69101;45.534;10.218;2023-05-14T06:19:47;7.22;;;2.10;;
79624;SDS011;69101;45.534;10.218;2023-05-14T06:22:12;7.95;;;1.85;;
79624;SDS011;69101;45.534;10.218;2023-05-14T06:24:38;9.00;;;2.22;;
79624;SDS011;69101;45.534;10.218;2023-05-14T06:27:04;7.55;;;1.95;;
79624;SDS011;69101;45.534;10.218;2023-05-14T06:29:29;7.20;;;1.90;;
79624;SDS011;69101;45.534;10.218;2023-05-14T06:32:00;6.60;;;1.85;;
79624;SDS011;69101;45.534;10.218;2023-05-14T06:34:27;7.72;;;1.98;;
79624;SDS011;69101;45.534;10.218;2023-05-14T06:36:53;5.97;;;1.75;;
79624;SDS011;69101;45.534;10.218;2023-05-14T06:39:18;6.35;;;1.55;;
79624;SDS011;69101;45.534;10.218;2023-05-14T06:41:43;6.72;;;1.90;;
79624;SDS011;69101;45.534;10.218;2023-05-14T06:44:09;6.85;;;1.90;;
79624;SDS011;69101;45.534;10.218;2023-05-14T06:46:35;8.43;;;2.00;;
79624;SDS011;69101;45.534;10.218;2023-05-14T06:49:01;7.38;;;1.90;;
79624;SDS011;69101;45.534;10.218;2023-05-14T06:51:26;7.80;;;2.15;;
79624;SDS011;69101;45.534;10.218;2023-05-14T06:53:52;7.85;;;2.10;;
79624;SDS011;69101;45.534;10.218;2023-05-14T06:56:18;7.03;;;2.00;;
79624;SDS011;69101;45.534;10.218;2023-05-14T06:58:43;8.63;;;2.25;;
79624;SDS011;69101;45.534;10.218;2023-05-14T07:01:08;8.88;;;2.10;;
79624;SDS011;69101;45.534;10.218;2023-05-14T07:03:34;8.32;;;2.13;;
79624;SDS011;69101;45.534;10.218;2023-05-14T07:06:00;7.32;;;1.90;;
79624;SDS011;69101;45.534;10.218;2023-05-14T07:08:25;7.57;;;2.13;;
79624;SDS011;69101;45.534;10.218;2023-05-14T07:10:50;8.48;;;2.13;;
79624;SDS011;69101;45.534;10.218;2023-05-14T07:13:16;7.82;;;2.30;;
79624;SDS011;69101;45.534;10.218;2023-05-14T07:15:41;7.45;;;1.95;;
79624;SDS011;69101;45.534;10.218;2023-05-14T07:18:06;7.95;;;2.03;;
79624;SDS011;69101;45.534;10.218;2023-05-14T07:20:31;7.35;;;2.10;;
79624;SDS011;69101;45.534;10.218;2023-05-14T07:22:57;7.57;;;2.10;;
79624;SDS011;69101;45.534;10.218;2023-05-14T07:25:23;6.75;;;1.92;;
79624;SDS011;69101;45.534;10.218;2023-05-14T07:27:48;7.35;;;2.03;;
79624;SDS011;69101;45.534;10.218;2023-05-14T07:30:13;8.50;;;2.17;;
79624;SDS011;69101;45.534;10.218;2023-05-14T07:32:39;8.13;;;2.10;;
79624;SDS011;69101;45.534;10.218;2023-05-14T07:35:04;7.78;;;2.00;;
79624;SDS011;69101;45.534;10.218;2023-05-14T07:37:30;7.05;;;1.77;;
79624;SDS011;69101;45.534;10.218;2023-05-14T07:39:56;8.35;;;2.03;;
79624;SDS011;69101;45.534;10.218;2023-05-14T07:42:21;6.78;;;1.80;;
79624;SDS011;69101;45.534;10.218;2023-05-14T07:44:47;7.40;;;2.03;;
79624;SDS011;69101;45.534;10.218;2023-05-14T07:47:12;7.13;;;1.80;;
79624;SDS011;69101;45.534;10.218;2023-05-14T07:49:37;7.60;;;1.98;;
79624;SDS011;69101;45.534;10.218;2023-05-14T07:52:03;6.68;;;1.60;;
79624;SDS011;69101;45.534;10.218;2023-05-14T07:54:28;7.60;;;2.15;;
79624;SDS011;69101;45.534;10.218;2023-05-14T07:56:53;7.68;;;1.88;;
79624;SDS011;69101;45.534;10.218;2023-05-14T07:59:19;7.05;;;1.98;;
79624;SDS011;69101;45.534;10.218;2023-05-14T08:01:44;7.70;;;1.83;;
79624;SDS011;69101;45.534;10.218;2023-05-14T08:04:09;8.10;;;2.00;;
79624;SDS011;69101;45.534;10.218;2023-05-14T08:06:40;9.55;;;2.20;;
79624;SDS011;69101;45.534;10.218;2023-05-14T08:09:06;8.10;;;2.40;;
79624;SDS011;69101;45.534;10.218;2023-05-14T08:11:32;8.15;;;2.25;;
79624;SDS011;69101;45.534;10.218;2023-05-14T08:13:58;8.10;;;2.42;;
79624;SDS011;69101;45.534;10.218;2023-05-14T08:16:23;7.80;;;2.20;;
79624;SDS011;69101;45.534;10.218;2023-05-14T08:18:50;9.35;;;2.33;;
79624;SDS011;69101;45.534;10.218;2023-05-14T08:21:15;8.52;;;2.30;;
79624;SDS011;69101;45.534;10.218;2023-05-14T08:23:41;7.75;;;2.10;;
79624;SDS011;69101;45.534;10.218;2023-05-14T08:26:06;8.32;;;2.30;;
79624;SDS011;69101;45.534;10.218;2023-05-14T08:28:32;8.45;;;2.55;;
79624;SDS011;69101;45.534;10.218;2023-05-14T08:30:57;6.18;;;1.70;;
79624;SDS011;69101;45.534;10.218;2023-05-14T08:33:23;7.22;;;1.77;;
79624;SDS011;69101;45.534;10.218;2023-05-14T08:35:51;6.90;;;2.13;;
79624;SDS011;69101;45.534;10.218;2023-05-14T08:38:17;8.35;;;1.98;;
79624;SDS011;69101;45.534;10.218;2023-05-14T08:40:46;6.82;;;2.00;;
79624;SDS011;69101;45.534;10.218;2023-05-14T08:43:24;7.47;;;2.00;;
79624;SDS011;69101;45.534;10.218;2023-05-14T08:45:56;6.22;;;1.83;;
79624;SDS011;69101;45.534;10.218;2023-05-14T08:48:22;7.50;;;2.00;;
79624;SDS011;69101;45.534;10.218;2023-05-14T08:50:52;6.80;;;1.70;;
79624;SDS011;69101;45.534;10.218;2023-05-14T08:53:18;7.97;;;2.10;;
79624;SDS011;69101;45.534;10.218;2023-05-14T08:55:43;7.60;;;2.13;;
79624;SDS011;69101;45.534;10.218;2023-05-14T08:58:10;7.20;;;1.88;;
79624;SDS011;69101;45.534;10.218;2023-05-14T09:00:35;6.97;;;1.60;;
79624;SDS011;69101;45.534;10.218;2023-05-14T09:03:00;5.85;;;1.65;;
79624;SDS011;69101;45.534;10.218;2023-05-14T09:05:27;7.97;;;2.00;;
79624;SDS011;69101;45.534;10.218;2023-05-14T09:07:53;6.75;;;1.92;;
79624;SDS011;69101;45.534;10.218;2023-05-14T09:10:18;7.05;;;1.95;;
79624;SDS011;69101;45.534;10.218;2023-05-14T09:12:44;5.97;;;1.70;;
79624;SDS011;69101;45.534;10.218;2023-05-14T09:15:10;6.70;;;1.70;;
79624;SDS011;69101;45.534;10.218;2023-05-14T09:17:35;6.00;;;1.60;;
79624;SDS011;69101;45.534;10.218;2023-05-14T09:20:01;5.32;;;1.52;;
79624;SDS011;69101;45.534;10.218;2023-05-14T09:22:27;5.90;;;1.73;;
79624;SDS011;69101;45.534;10.218;2023-05-14T09:25:02;5.80;;;1.60;;
79624;SDS011;69101;45.534;10.218;2023-05-14T09:27:29;5.80;;;1.65;;
79624;SDS011;69101;45.534;10.218;2023-05-14T09:29:55;6.13;;;1.63;;
79624;SDS011;69101;45.534;10.218;2023-05-14T09:32:33;6.60;;;1.80;;
79624;SDS011;69101;45.534;10.218;2023-05-14T09:35:07;7.05;;;1.80;;
79624;SDS011;69101;45.534;10.218;2023-05-14T09:37:53;8.13;;;2.10;;
79624;SDS011;69101;45.534;10.218;2023-05-14T09:40:20;4.95;;;1.50;;
79624;SDS011;69101;45.534;10.218;2023-05-14T09:42:46;6.22;;;1.80;;
79624;SDS011;69101;45.534;10.218;2023-05-14T09:45:13;6.50;;;1.75;;
79624;SDS011;69101;45.534;10.218;2023-05-14T09:47:39;5.07;;;1.52;;
79624;SDS011;69101;45.534;10.218;2023-05-14T09:50:05;6.55;;;1.63;;
79624;SDS011;69101;45.534;10.218;2023-05-14T09:52:31;7.45;;;1.88;;
79624;SDS011;69101;45.534;10.218;2023-05-14T09:54:56;5.65;;;1.50;;
79624;SDS011;69101;45.534;10.218;2023-05-14T09:57:22;6.50;;;1.63;;
79624;SDS011;69101;45.534;10.218;2023-05-14T09:59:47;6.38;;;1.70;;
79624;SDS011;69101;45.534;10.218;2023-05-14T10:02:23;6.95;;;1.90;;
79624;SDS011;69101;45.534;10.218;2023-05-14T10:07:18;5.75;;;1.70;;
79624;SDS011;69101;45.534;10.218;2023-05-14T10:09:53;6.03;;;1.77;;
79624;SDS011;69101;45.534;10.218;2023-05-14T10:17:21;7.07;;;1.70;;
79624;SDS011;69101;45.534;10.218;2023-05-14T10:19:53;7.32;;;1.90;;
79624;SDS011;69101;45.534;10.218;2023-05-14T10:22:23;8.07;;;1.80;;
79624;SDS011;69101;45.534;10.218;2023-05-14T10:24:55;6.47;;;1.70;;
79624;SDS011;69101;45.534;10.218;2023-05-14T10:27:20;7.80;;;1.90;;
79624;SDS011;69101;45.534;10.218;2023-05-14T10:29:50;6.25;;;1.80;;
79624;SDS011;69101;45.534;10.218;2023-05-14T10:32:20;8.75;;;2.17;;
79624;SDS011;69101;45.534;10.218;2023-05-14T10:34:49;5.43;;;1.50;;
79624;SDS011;69101;45.534;10.218;2023-05-14T10:37:20;6.20;;;1.58;;
79624;SDS011;69101;45.534;10.218;2023-05-14T10:40:20;5.78;;;1.70;;
79624;SDS011;69101;45.534;10.218;2023-05-14T10:42:39;6.28;;;1.50;;
79624;SDS011;69101;45.534;10.218;2023-05-14T10:45:08;6.03;;;1.70;;
79624;SDS011;69101;45.534;10.218;2023-05-14T10:47:36;5.75;;;1.60;;
79624;SDS011;69101;45.534;10.218;2023-05-14T10:50:07;6.13;;;1.67;;
79624;SDS011;69101;45.534;10.218;2023-05-14T10:52:34;7.57;;;1.70;;
79624;SDS011;69101;45.534;10.218;2023-05-14T10:55:01;7.05;;;1.90;;
79624;SDS011;69101;45.534;10.218;2023-05-14T10:57:31;6.15;;;1.70;;
79624;SDS011;69101;45.534;10.218;2023-05-14T10:59:59;5.35;;;1.40;;
79624;SDS011;69101;45.534;10.218;2023-05-14T11:02:26;7.53;;;1.70;;
79624;SDS011;69101;45.534;10.218;2023-05-14T11:07:22;5.30;;;1.40;;
79624;SDS011;69101;45.534;10.218;2023-05-14T11:09:55;5.93;;;1.60;;
79624;SDS011;69101;45.534;10.218;2023-05-14T11:12:25;4.80;;;1.40;;
79624;SDS011;69101;45.534;10.218;2023-05-14T11:14:51;6.53;;;1.67;;
79624;SDS011;69101;45.534;10.218;2023-05-14T11:17:17;5.75;;;1.58;;
79624;SDS011;69101;45.534;10.218;2023-05-14T11:19:43;5.53;;;1.42;;
79624;SDS011;69101;45.534;10.218;2023-05-14T11:22:10;4.65;;;1.33;;
79624;SDS011;69101;45.534;10.218;2023-05-14T11:24:38;6.22;;;1.50;;
79624;SDS011;69101;45.534;10.218;2023-05-14T11:27:04;5.38;;;1.52;;
79624;SDS011;69101;45.534;10.218;2023-05-14T11:29:32;5.57;;;1.40;;
79624;SDS011;69101;45.534;10.218;2023-05-14T11:31:58;5.13;;;1.48;;
79624;SDS011;69101;45.534;10.218;2023-05-14T11:34:23;6.47;;;1.50;;
79624;SDS011;69101;45.534;10.218;2023-05-14T11:36:49;5.72;;;1.70;;
79624;SDS011;69101;45.534;10.218;2023-05-14T11:39:17;6.22;;;1.70;;
79624;SDS011;69101;45.534;10.218;2023-05-14T11:41:45;6.10;;;1.50;;
79624;SDS011;69101;45.534;10.218;2023-05-14T11:44:11;6.90;;;2.00;;
79624;SDS011;69101;45.534;10.218;2023-05-14T11:46:36;9.80;;;1.90;;
79624;SDS011;69101;45.534;10.218;2023-05-14T11:49:05;6.13;;;1.80;;
79624;SDS011;69101;45.534;10.218;2023-05-14T11:51:30;6.43;;;1.80;;
79624;SDS011;69101;45.534;10.218;2023-05-14T11:53:56;6.70;;;2.00;;
79624;SDS011;69101;45.534;10.218;2023-05-14T11:56:24;6.63;;;1.83;;
79624;SDS011;69101;45.534;10.218;2023-05-14T11:58:56;5.50;;;1.60;;
79624;SDS011;69101;45.534;10.218;2023-05-14T12:01:22;7.00;;;1.80;;
79624;SDS011;69101;45.534;10.218;2023-05-14T12:03:47;6.78;;;1.90;;
79624;SDS011;69101;45.534;10.218;2023-05-14T12:06:14;6.75;;;1.75;;
79624;SDS011;69101;45.534;10.218;2023-05-14T12:08:39;5.93;;;1.67;;
79624;SDS011;69101;45.534;10.218;2023-05-14T12:11:05;7.22;;;1.80;;
79624;SDS011;69101;45.534;10.218;2023-05-14T12:13:33;6.28;;;1.70;;
79624;SDS011;69101;45.534;10.218;2023-05-14T12:16:00;5.43;;;1.50;;
79624;SDS011;69101;45.534;10.218;2023-05-14T12:18:26;6.13;;;1.60;;
79624;SDS011;69101;45.534;10.218;2023-05-14T12:20:53;6.47;;;1.65;;
79624;SDS011;69101;45.534;10.218;2023-05-14T12:23:28;6.30;;;1.60;;
79624;SDS011;69101;45.534;10.218;2023-05-14T12:25:54;5.53;;;1.67;;
79624;SDS011;69101;45.534;10.218;2023-05-14T12:28:25;6.35;;;1.60;;
79624;SDS011;69101;45.534;10.218;2023-05-14T12:30:55;5.90;;;1.60;;
79624;SDS011;69101;45.534;10.218;2023-05-14T12:33:21;6.80;;;1.80;;
79624;SDS011;69101;45.534;10.218;2023-05-14T12:35:47;6.68;;;1.60;;
79624;SDS011;69101;45.534;10.218;2023-05-14T12:38:13;5.25;;;1.55;;
79624;SDS011;69101;45.534;10.218;2023-05-14T12:40:38;6.15;;;1.60;;
79624;SDS011;69101;45.534;10.218;2023-05-14T12:43:04;7.90;;;1.80;;
79624;SDS011;69101;45.534;10.218;2023-05-14T12:45:29;7.60;;;2.10;;
79624;SDS011;69101;45.534;10.218;2023-05-14T12:47:54;8.25;;;2.28;;
79624;SDS011;69101;45.534;10.218;2023-05-14T12:50:20;6.88;;;1.80;;
79624;SDS011;69101;45.534;10.218;2023-05-14T12:52:45;8.30;;;2.10;;
79624;SDS011;69101;45.534;10.218;2023-05-14T12:55:11;6.72;;;1.70;;
79624;SDS011;69101;45.534;10.218;2023-05-14T12:57:36;7.55;;;1.85;;
79624;SDS011;69101;45.534;10.218;2023-05-14T13:00:02;6.45;;;1.65;;
79624;SDS011;69101;45.534;10.218;2023-05-14T13:02:30;7.53;;;1.92;;
79624;SDS011;69101;45.534;10.218;2023-05-14T13:04:56;6.65;;;1.90;;
79624;SDS011;69101;45.534;10.218;2023-05-14T13:07:21;6.93;;;1.75;;
79624;SDS011;69101;45.534;10.218;2023-05-14T13:09:46;7.60;;;2.13;;
79624;SDS011;69101;45.534;10.218;2023-05-14T13:12:12;8.73;;;2.00;;
79624;SDS011;69101;45.534;10.218;2023-05-14T13:14:37;7.20;;;1.92;;
79624;SDS011;69101;45.534;10.218;2023-05-14T13:17:03;6.97;;;1.90;;
79624;SDS011;69101;45.534;10.218;2023-05-14T13:19:28;7.03;;;1.92;;
79624;SDS011;69101;45.534;10.218;2023-05-14T13:21:54;8.02;;;2.08;;
79624;SDS011;69101;45.534;10.218;2023-05-14T13:24:19;6.70;;;1.77;;
79624;SDS011;69101;45.534;10.218;2023-05-14T13:26:44;7.93;;;1.95;;
79624;SDS011;69101;45.534;10.218;2023-05-14T13:29:10;7.93;;;2.22;;
79624;SDS011;69101;45.534;10.218;2023-05-14T13:31:35;7.35;;;1.83;;
79624;SDS011;69101;45.534;10.218;2023-05-14T13:34:02;7.78;;;2.20;;
79624;SDS011;69101;45.534;10.218;2023-05-14T13:36:27;8.32;;;2.30;;
79624;SDS011;69101;45.534;10.218;2023-05-14T13:38:52;7.78;;;2.15;;
79624;SDS011;69101;45.534;10.218;2023-05-14T13:41:18;8.35;;;2.40;;
79624;SDS011;69101;45.534;10.218;2023-05-14T13:43:43;8.35;;;2.20;;
79624;SDS011;69101;45.534;10.218;2023-05-14T13:46:08;7.22;;;2.00;;
79624;SDS011;69101;45.534;10.218;2023-05-14T13:48:34;7.68;;;2.20;;
79624;SDS011;69101;45.534;10.218;2023-05-14T13:51:01;7.50;;;2.13;;
79624;SDS011;69101;45.534;10.218;2023-05-14T13:53:26;7.88;;;2.47;;
79624;SDS011;69101;45.534;10.218;2023-05-14T13:55:52;7.70;;;1.88;;
79624;SDS011;69101;45.534;10.218;2023-05-14T13:58:22;9.07;;;2.47;;
79624;SDS011;69101;45.534;10.218;2023-05-14T14:00:49;8.63;;;2.20;;
79624;SDS011;69101;45.534;10.218;2023-05-14T14:03:15;8.02;;;2.20;;
79624;SDS011;69101;45.534;10.218;2023-05-14T14:05:40;9.27;;;2.50;;
79624;SDS011;69101;45.534;10.218;2023-05-14T14:08:06;7.85;;;2.30;;
79624;SDS011;69101;45.534;10.218;2023-05-14T14:10:31;7.75;;;1.95;;
79624;SDS011;69101;45.534;10.218;2023-05-14T14:12:56;9.13;;;2.60;;
79624;SDS011;69101;45.534;10.218;2023-05-14T14:15:22;8.77;;;2.63;;
79624;SDS011;69101;45.534;10.218;2023-05-14T14:17:47;8.93;;;2.20;;
79624;SDS011;69101;45.534;10.218;2023-05-14T14:20:13;8.77;;;2.20;;
79624;SDS011;69101;45.534;10.218;2023-05-14T14:22:38;7.13;;;2.10;;
79624;SDS011;69101;45.534;10.218;2023-05-14T14:25:05;8.13;;;2.45;;
79624;SDS011;69101;45.534;10.218;2023-05-14T14:27:32;7.95;;;2.17;;
79624;SDS011;69101;45.534;10.218;2023-05-14T14:30:02;7.95;;;2.28;;
79624;SDS011;69101;45.534;10.218;2023-05-14T14:32:32;6.93;;;2.08;;
79624;SDS011;69101;45.534;10.218;2023-05-14T14:34:57;7.15;;;2.05;;
79624;SDS011;69101;45.534;10.218;2023-05-14T14:37:22;8.20;;;2.00;;
79624;SDS011;69101;45.534;10.218;2023-05-14T14:39:48;8.00;;;2.00;;
79624;SDS011;69101;45.534;10.218;2023-05-14T14:42:13;8.18;;;2.15;;
79624;SDS011;69101;45.534;10.218;2023-05-14T14:44:38;8.07;;;2.15;;